createdAt,value
2023-03-10T00:00:33.721Z,97962.88
2023-03-10T00:03:01.313Z,97956.06
2023-03-10T00:05:29.075Z,97952.59
2023-03-10T00:07:56.681Z,97948.34
2023-03-10T00:10:24.741Z,97952.66
2023-03-10T00:12:52.397Z,97949.25
2023-03-10T00:15:21.306Z,97949.22
2023-03-10T00:17:50.074Z,97944.06
2023-03-10T00:20:17.675Z,97949.19
2023-03-10T00:22:45.312Z,97937.16
2023-03-10T00:25:12.917Z,97938.91
2023-03-10T00:27:40.543Z,97937.16
2023-03-10T00:30:09.597Z,97934.59
2023-03-10T00:32:38.779Z,97935.44
2023-03-10T00:35:07.358Z,97931.19
2023-03-10T00:37:38.108Z,97920.88
2023-03-10T00:40:09.271Z,97923.41
2023-03-10T00:42:36.863Z,97921.75
2023-03-10T00:45:05.017Z,97918.34
2023-03-10T00:47:32.619Z,97915.75
2023-03-10T00:50:01.576Z,97916.66
2023-03-10T00:52:32.768Z,97918.34
2023-03-10T00:55:00.414Z,97911.53
2023-03-10T00:57:28.420Z,97917.53
2023-03-10T00:59:56.054Z,97909.03
2023-03-10T01:02:23.663Z,97906.47
2023-03-10T01:04:51.204Z,97892.72
2023-03-10T01:07:20.120Z,97888.47
2023-03-10T01:09:50.881Z,97885.91
2023-03-10T01:12:19.006Z,97885.97
2023-03-10T01:14:46.534Z,97886.00
2023-03-10T01:17:16.100Z,97887.75
2023-03-10T01:19:43.733Z,97865.50
2023-03-10T01:22:11.297Z,97855.16
2023-03-10T01:24:40.299Z,97844.03
2023-03-10T01:27:07.912Z,97835.56
2023-03-10T01:29:35.478Z,97836.44
2023-03-10T01:32:03.117Z,97818.47
2023-03-10T01:34:31.857Z,97819.34
2023-03-10T01:36:59.606Z,97819.38
2023-03-10T01:39:27.347Z,97815.97
2023-03-10T01:41:56.258Z,97816.84
2023-03-10T01:44:23.837Z,97822.84
2023-03-10T01:46:54.831Z,97816.00
2023-03-10T01:49:41.464Z,97816.03
2023-03-10T01:52:13.626Z,97816.03
2023-03-10T01:54:49.370Z,97813.47
2023-03-10T01:57:22.202Z,97812.59
2023-03-10T01:59:51.060Z,97810.84
2023-03-10T02:02:19.360Z,97805.72
2023-03-10T02:04:49.464Z,97802.28
2023-03-10T02:07:26.373Z,97789.44
2023-03-10T02:09:56.983Z,97780.00
2023-03-10T02:12:25.912Z,97777.41
2023-03-10T02:14:54.273Z,97778.25
2023-03-10T02:17:25.321Z,97759.44
2023-03-10T02:20:10.790Z,97749.09
2023-03-10T02:22:39.898Z,97749.03
2023-03-10T02:25:19.673Z,97748.13
2023-03-10T02:27:48.712Z,97752.31
2023-03-10T02:30:21.255Z,97745.44
2023-03-10T02:32:51.893Z,97750.50
2023-03-10T02:35:20.117Z,97744.50
2023-03-10T02:37:53.781Z,97729.88
2023-03-10T02:40:34.619Z,97741.81
2023-03-10T02:43:17.799Z,97729.69
2023-03-10T02:45:48.236Z,97722.78
2023-03-10T02:48:25.401Z,97736.50
2023-03-10T02:50:54.733Z,97733.97
2023-03-10T02:53:24.840Z,97733.94
2023-03-10T02:55:53.363Z,97730.44
2023-03-10T02:58:24.585Z,97732.16
2023-03-10T03:00:52.566Z,97722.59
2023-03-10T03:03:23.236Z,97720.03
2023-03-10T03:05:52.279Z,97717.41
2023-03-10T03:08:21.055Z,97716.59
2023-03-10T03:10:48.992Z,97712.31
2023-03-10T03:13:16.752Z,97708.06
2023-03-10T03:15:45.800Z,97696.81
2023-03-10T03:18:13.810Z,97698.59
2023-03-10T03:20:42.249Z,97698.56
2023-03-10T03:23:12.530Z,97712.31
2023-03-10T03:25:42.041Z,97696.56
2023-03-10T03:28:13.136Z,97710.28
2023-03-10T03:30:41.885Z,97699.91
2023-03-10T03:33:11.027Z,97694.66
2023-03-10T03:35:41.048Z,97684.28
2023-03-10T03:38:08.952Z,97679.13
2023-03-10T03:40:38.598Z,97689.41
2023-03-10T03:43:07.798Z,97673.00
2023-03-10T03:45:36.004Z,97679.84
2023-03-10T03:48:03.652Z,97693.47
2023-03-10T03:50:35.177Z,97698.53
2023-03-10T03:53:09.204Z,97674.47
2023-03-10T03:55:36.809Z,97656.41
2023-03-10T03:58:04.724Z,97663.22
2023-03-10T04:00:34.124Z,97675.31
2023-03-10T04:03:05.682Z,97672.72
2023-03-10T04:05:35.640Z,97672.69
2023-03-10T04:08:03.540Z,97668.44
2023-03-10T04:10:31.551Z,97675.19
2023-03-10T04:13:00.530Z,97668.38
2023-03-10T04:15:28.750Z,97689.75
2023-03-10T04:17:57.787Z,97675.09
2023-03-10T04:20:25.841Z,97680.34
2023-03-10T04:22:55.189Z,97675.22
2023-03-10T04:25:28.869Z,97689.84
2023-03-10T04:27:58.360Z,97694.84
2023-03-10T04:30:29.559Z,97692.19
2023-03-10T04:33:00.255Z,97687.03
2023-03-10T04:35:32.656Z,97670.81
2023-03-10T04:38:02.542Z,97652.03
2023-03-10T04:40:30.363Z,97657.28
2023-03-10T04:42:58.211Z,97651.44
2023-03-10T04:45:25.893Z,97622.31
2023-03-10T04:47:54.646Z,97625.03
2023-03-10T04:50:22.420Z,97636.28
2023-03-10T04:52:51.628Z,97632.03
2023-03-10T04:55:25.096Z,97614.06
2023-03-10T04:57:52.913Z,97619.38
2023-03-10T05:00:20.995Z,97615.94
2023-03-10T05:02:48.997Z,97597.91
2023-03-10T05:05:16.733Z,97600.56
2023-03-10T05:07:46.585Z,97600.59
2023-03-10T05:10:14.262Z,97598.91
2023-03-10T05:12:43.547Z,97597.28
2023-03-10T05:15:12.927Z,97599.03
2023-03-10T05:17:40.567Z,97598.19
2023-03-10T05:20:10.099Z,97590.50
2023-03-10T05:22:39.360Z,97589.66
2023-03-10T05:25:10.714Z,97594.00
2023-03-10T05:27:39.994Z,97577.72
2023-03-10T05:30:12.236Z,97583.78
2023-03-10T05:32:39.941Z,97570.09
2023-03-10T05:35:08.337Z,97573.53
2023-03-10T05:37:39.621Z,97569.25
2023-03-10T05:40:10.208Z,97563.22
2023-03-10T05:42:37.922Z,97569.16
2023-03-10T05:45:06.461Z,97569.16
2023-03-10T05:47:35.619Z,97574.25
2023-03-10T05:50:04.630Z,97571.63
2023-03-10T05:52:32.261Z,97569.88
2023-03-10T05:54:59.880Z,97565.22
2023-03-10T05:57:27.967Z,97555.75
2023-03-10T05:59:55.601Z,97561.59
2023-03-10T06:02:23.942Z,97558.09
2023-03-10T06:04:53.003Z,97558.97
2023-03-10T06:07:20.606Z,97571.84
2023-03-10T06:09:48.222Z,97564.97
2023-03-10T06:12:15.845Z,97541.66
2023-03-10T06:14:43.511Z,97545.09
2023-03-10T06:17:11.166Z,97556.25
2023-03-10T06:19:38.787Z,97548.56
2023-03-10T06:22:07.745Z,97542.59
2023-03-10T06:24:35.277Z,97549.44
2023-03-10T06:27:03.114Z,97554.59
2023-03-10T06:29:30.748Z,97554.59
2023-03-10T06:31:58.456Z,97536.69
2023-03-10T06:34:26.247Z,97531.56
2023-03-10T06:36:55.815Z,97531.63
2023-03-10T06:39:28.748Z,97528.22
2023-03-10T06:41:59.175Z,97529.13
2023-03-10T06:44:26.789Z,97525.75
2023-03-10T06:46:54.444Z,97531.75
2023-03-10T06:49:22.014Z,97529.16
2023-03-10T06:51:49.586Z,97529.19
2023-03-10T06:54:17.182Z,97542.94
2023-03-10T06:56:46.081Z,97529.25
2023-03-10T06:59:13.684Z,97536.13
2023-03-10T07:01:41.643Z,97531.81
2023-03-10T07:04:09.502Z,97519.75
2023-03-10T07:06:37.097Z,97520.56
2023-03-10T07:09:05.160Z,97522.94
2023-03-10T07:11:32.804Z,97514.22
2023-03-10T07:14:01.823Z,97521.75
2023-03-10T07:16:29.448Z,97527.63
2023-03-10T07:18:56.983Z,97534.25
2023-03-10T07:21:24.654Z,97565.66
2023-03-10T07:23:52.482Z,97574.97
2023-03-10T07:26:20.365Z,97591.28
2023-03-10T07:28:48.706Z,97591.50
2023-03-10T07:31:18.358Z,97594.53
2023-03-10T07:33:46.004Z,97601.09
2023-03-10T07:36:16.514Z,97620.91
2023-03-10T07:38:44.283Z,97621.50
2023-03-10T07:41:15.520Z,97626.91
2023-03-10T07:43:43.142Z,97659.72
2023-03-10T07:46:13.448Z,97594.81
2023-03-10T07:48:42.751Z,97613.91
2023-03-10T07:51:10.736Z,97662.97
2023-03-10T07:53:38.399Z,97692.13
2023-03-10T07:56:07.122Z,97717.03
2023-03-10T07:58:35.719Z,97723.13
2023-03-10T08:01:04.521Z,97706.09
2023-03-10T08:03:34.109Z,97694.16
2023-03-10T08:06:05.431Z,97693.38
2023-03-10T08:08:33.090Z,97695.06
2023-03-10T08:11:03.736Z,97700.19
2023-03-10T08:13:31.948Z,97679.66
2023-03-10T08:16:00.666Z,97696.75
2023-03-10T08:18:29.448Z,97683.06
2023-03-10T08:20:57.792Z,97672.81
2023-03-10T08:23:27.134Z,97665.06
2023-03-10T08:25:54.721Z,97657.28
2023-03-10T08:28:22.479Z,97660.69
2023-03-10T08:31:03.701Z,97662.28
2023-03-10T08:33:32.171Z,97666.56
2023-03-10T08:36:05.369Z,97662.22
2023-03-10T08:38:34.676Z,97655.41
2023-03-10T08:41:09.962Z,97669.94
2023-03-10T08:43:37.861Z,97674.13
2023-03-10T08:46:08.490Z,97678.44
2023-03-10T08:48:36.454Z,97679.31
2023-03-10T08:51:04.532Z,97676.69
2023-03-10T08:53:33.102Z,97678.34
2023-03-10T08:56:02.028Z,97688.53
2023-03-10T08:58:29.829Z,97683.41
2023-03-10T09:00:57.432Z,97673.97
2023-03-10T09:03:25.191Z,97682.47
2023-03-10T09:05:53.464Z,97702.16
2023-03-10T09:08:21.070Z,97690.97
2023-03-10T09:10:49.276Z,97699.56
2023-03-10T09:13:18.208Z,97697.88
2023-03-10T09:15:45.907Z,97708.13
2023-03-10T09:18:15.221Z,97703.75
2023-03-10T09:20:43.302Z,97711.31
2023-03-10T09:23:12.787Z,97702.59
2023-03-10T09:25:41.175Z,97702.59
2023-03-10T09:28:09.241Z,97695.56
2023-03-10T09:30:40.315Z,97691.91
2023-03-10T09:33:12.015Z,97688.44
2023-03-10T09:35:41.751Z,97699.63
2023-03-10T09:38:13.231Z,97692.53
2023-03-10T09:40:45.597Z,97706.34
2023-03-10T09:43:16.946Z,97703.69
2023-03-10T09:45:51.428Z,97707.22
2023-03-10T09:48:47.449Z,97707.09
2023-03-10T09:51:18.070Z,97705.34
2023-03-10T09:53:55.773Z,97698.50
2023-03-10T09:56:29.891Z,97701.91
2023-03-10T09:59:02.478Z,97707.91
2023-03-10T10:01:33.371Z,97712.25
2023-03-10T10:04:06.175Z,97708.94
2023-03-10T10:06:36.149Z,97719.31
2023-03-10T10:09:07.086Z,97714.00
2023-03-10T10:11:36.472Z,97723.59
2023-03-10T10:14:27.807Z,97727.81
2023-03-10T10:17:04.280Z,97721.78
2023-03-10T10:19:34.366Z,97727.94
2023-03-10T10:22:11.357Z,97719.28
2023-03-10T10:24:40.506Z,97721.06
2023-03-10T10:27:08.107Z,97725.91
2023-03-10T10:29:37.283Z,97724.88
2023-03-10T10:32:11.576Z,97718.88
2023-03-10T10:34:40.687Z,97717.03
2023-03-10T10:37:28.547Z,97704.63
2023-03-10T10:39:58.718Z,97710.75
2023-03-10T10:42:28.054Z,97714.75
2023-03-10T10:44:57.729Z,97707.84
2023-03-10T10:47:30.196Z,97717.00
2023-03-10T10:50:18.106Z,97708.94
2023-03-10T10:52:48.662Z,97717.75
2023-03-10T10:55:28.592Z,97716.84
2023-03-10T10:58:01.300Z,97724.69
2023-03-10T11:00:32.353Z,97735.88
2023-03-10T11:03:02.023Z,97714.16
2023-03-10T11:05:35.922Z,97762.97
2023-03-10T11:08:19.153Z,97741.66
2023-03-10T11:10:55.965Z,97745.41
2023-03-10T11:13:30.270Z,97757.41
2023-03-10T11:16:05.069Z,97751.78
2023-03-10T11:18:37.521Z,97765.47
2023-03-10T11:21:12.276Z,97745.81
2023-03-10T11:23:46.369Z,97739.75
2023-03-10T11:26:22.998Z,97763.72
2023-03-10T11:28:55.927Z,97756.00
2023-03-10T11:31:37.511Z,97749.03
2023-03-10T11:34:20.038Z,97758.28
2023-03-10T11:36:57.496Z,97757.44
2023-03-10T11:39:36.660Z,97754.09
2023-03-10T11:42:10.669Z,97746.44
2023-03-10T11:44:42.335Z,97760.13
2023-03-10T11:47:20.711Z,97743.88
2023-03-10T11:49:55.502Z,97742.84
2023-03-10T11:52:25.834Z,97740.84
2023-03-10T11:55:01.759Z,97735.41
2023-03-10T11:57:34.292Z,97741.03
2023-03-10T12:00:07.757Z,97718.28
2023-03-10T12:02:37.673Z,97740.50
2023-03-10T12:05:14.514Z,97724.03
2023-03-10T12:07:45.357Z,97730.38
2023-03-10T12:10:17.207Z,97733.94
2023-03-10T12:12:46.981Z,97739.09
2023-03-10T12:15:20.658Z,97733.97
2023-03-10T12:17:49.764Z,97768.31
2023-03-10T12:20:29.093Z,97756.97
2023-03-10T12:22:57.802Z,97737.50
2023-03-10T12:25:47.792Z,97747.97
2023-03-10T12:28:24.190Z,97742.66
2023-03-10T12:30:56.354Z,97742.69
2023-03-10T12:33:42.486Z,97759.97
2023-03-10T12:36:15.073Z,97738.69
2023-03-10T12:38:46.364Z,97730.13
2023-03-10T12:41:15.492Z,97738.06
2023-03-10T12:43:54.928Z,97740.66
2023-03-10T12:46:27.977Z,97747.47
2023-03-10T12:49:07.953Z,97733.13
2023-03-10T12:51:43.873Z,97749.56
2023-03-10T12:54:34.462Z,97744.50
2023-03-10T12:57:09.378Z,97747.41
2023-03-10T12:59:42.056Z,97750.84
2023-03-10T13:02:24.684Z,97751.84
2023-03-10T13:04:59.744Z,97749.31
2023-03-10T13:07:29.596Z,97745.88
2023-03-10T13:09:58.928Z,97739.00
2023-03-10T13:12:31.396Z,97737.25
2023-03-10T13:15:00.918Z,97733.84
2023-03-10T13:17:30.813Z,97751.00
2023-03-10T13:20:00.906Z,97759.56
2023-03-10T13:22:30.485Z,97758.66
2023-03-10T13:25:00.885Z,97765.59
2023-03-10T13:27:31.155Z,97758.78
2023-03-10T13:30:01.786Z,97775.88
2023-03-10T13:32:30.424Z,97769.94
2023-03-10T13:34:59.182Z,97785.25
2023-03-10T13:37:26.882Z,97775.88
2023-03-10T13:40:08.504Z,97793.78
2023-03-10T13:42:43.681Z,97826.41
2023-03-10T13:45:22.857Z,97819.59
2023-03-10T13:47:51.409Z,97827.31
2023-03-10T13:50:19.247Z,97834.22
2023-03-10T13:52:54.627Z,97828.25
2023-03-10T13:55:24.096Z,97823.97
2023-03-10T13:57:52.802Z,97816.28
2023-03-10T14:00:22.705Z,97800.91
2023-03-10T14:02:51.910Z,97816.28
2023-03-10T14:05:39.898Z,97819.69
2023-03-10T14:08:17.986Z,97817.09
2023-03-10T14:10:46.912Z,97821.34
2023-03-10T14:13:43.881Z,97853.88
2023-03-10T14:16:12.277Z,97846.22
2023-03-10T14:18:41.500Z,97864.19
2023-03-10T14:21:33.489Z,97872.75
2023-03-10T14:24:11.632Z,97894.09
2023-03-10T14:26:41.015Z,97875.28
2023-03-10T14:29:14.913Z,97894.94
2023-03-10T14:31:42.532Z,97886.41
2023-03-10T14:34:13.147Z,97893.25
2023-03-10T14:36:40.730Z,97884.72
2023-03-10T14:39:09.491Z,97944.59
2023-03-10T14:41:37.418Z,97930.88
2023-03-10T14:44:06.564Z,97924.03
2023-03-10T14:46:35.102Z,97906.94
2023-03-10T14:49:03.013Z,97924.03
2023-03-10T14:51:35.977Z,97941.16
2023-03-10T14:54:04.000Z,97963.38
2023-03-10T14:56:32.731Z,97952.25
2023-03-10T14:59:02.966Z,97940.28
2023-03-10T15:01:32.432Z,97944.56
2023-03-10T15:04:00.047Z,97981.34
2023-03-10T15:06:27.855Z,98001.00
2023-03-10T15:08:55.414Z,97994.16
2023-03-10T15:11:36.010Z,98011.25
2023-03-10T15:14:05.729Z,98056.56
2023-03-10T15:16:34.612Z,98029.22
2023-03-10T15:19:02.186Z,98043.75
2023-03-10T15:21:29.780Z,98027.47
2023-03-10T15:23:57.317Z,98049.72
2023-03-10T15:26:24.891Z,98040.31
2023-03-10T15:28:52.514Z,98035.22
2023-03-10T15:31:20.133Z,98022.38
2023-03-10T15:33:49.023Z,98036.06
2023-03-10T15:36:16.621Z,98042.03
2023-03-10T15:38:44.302Z,98042.88
2023-03-10T15:41:13.015Z,98084.78
2023-03-10T15:43:40.971Z,98115.56
2023-03-10T15:46:09.485Z,98115.53
2023-03-10T15:48:37.126Z,98131.66
2023-03-10T15:51:10.666Z,98114.50
2023-03-10T15:53:38.371Z,98098.22
2023-03-10T15:56:07.449Z,98100.72
2023-03-10T15:58:35.262Z,98069.16
2023-03-10T16:01:07.677Z,98079.44
2023-03-10T16:03:36.606Z,98079.47
2023-03-10T16:06:04.724Z,98081.22
2023-03-10T16:08:37.332Z,98082.09
2023-03-10T16:11:06.315Z,98079.59
2023-03-10T16:13:33.880Z,98085.63
2023-03-10T16:16:05.501Z,98062.56
2023-03-10T16:18:33.165Z,98104.47
2023-03-10T16:21:02.107Z,98070.25
2023-03-10T16:23:32.167Z,98071.09
2023-03-10T16:26:13.206Z,98100.19
2023-03-10T16:28:42.825Z,98095.91
2023-03-10T16:31:11.742Z,98100.19
2023-03-10T16:33:39.677Z,98123.25
2023-03-10T16:36:09.442Z,98138.66
2023-03-10T16:38:37.467Z,98139.50
2023-03-10T16:41:05.381Z,98134.34
2023-03-10T16:43:34.421Z,98156.56
2023-03-10T16:46:08.677Z,98157.41
2023-03-10T16:48:39.046Z,98158.19
2023-03-10T16:51:19.951Z,98159.81
2023-03-10T16:53:47.907Z,98133.28
2023-03-10T16:56:15.899Z,98140.97
2023-03-10T16:58:44.996Z,98139.31
2023-03-10T17:01:12.694Z,98132.41
2023-03-10T17:03:40.563Z,98139.28
2023-03-10T17:06:10.170Z,98166.59
2023-03-10T17:08:38.609Z,98152.03
2023-03-10T17:11:07.480Z,98197.25
2023-03-10T17:13:36.555Z,98198.09
2023-03-10T17:16:12.380Z,98211.72
2023-03-10T17:18:39.985Z,98217.69
2023-03-10T17:21:12.670Z,98192.06
2023-03-10T17:23:40.316Z,98234.63
2023-03-10T17:26:09.222Z,98210.53
2023-03-10T17:28:37.041Z,98215.16
2023-03-10T17:31:10.340Z,98205.13
2023-03-10T17:33:37.858Z,98217.47
2023-03-10T17:36:06.465Z,98213.72
2023-03-10T17:38:34.445Z,98229.88
2023-03-10T17:41:05.624Z,98290.38
2023-03-10T17:43:34.805Z,98251.47
2023-03-10T17:46:06.146Z,98246.44
2023-03-10T17:48:35.593Z,98270.38
2023-03-10T17:51:04.026Z,98255.09
2023-03-10T17:53:32.315Z,98270.50
2023-03-10T17:56:04.222Z,98305.50
2023-03-10T17:58:31.898Z,98309.06
2023-03-10T18:00:59.548Z,98295.44
2023-03-10T18:03:27.143Z,98281.81
2023-03-10T18:05:56.106Z,98287.84
2023-03-10T18:08:23.650Z,98269.16
2023-03-10T18:11:00.342Z,98275.19
2023-03-10T18:13:27.985Z,98253.88
2023-03-10T18:15:55.639Z,98240.25
2023-03-10T18:18:23.326Z,98249.69
2023-03-10T18:20:51.105Z,98267.66
2023-03-10T18:23:22.023Z,98255.72
2023-03-10T18:25:49.998Z,98261.69
2023-03-10T18:28:19.154Z,98255.72
2023-03-10T18:30:48.535Z,98269.34
2023-03-10T18:33:16.325Z,98301.75
2023-03-10T18:35:46.048Z,98291.34
2023-03-10T18:38:14.398Z,98337.25
2023-03-10T18:40:43.650Z,98338.03
2023-03-10T18:43:11.317Z,98347.41
2023-03-10T18:45:40.720Z,98336.31
2023-03-10T18:48:08.513Z,98354.22
2023-03-10T18:50:36.167Z,98350.75
2023-03-10T18:53:03.687Z,98398.28
2023-03-10T18:55:31.284Z,98374.09
2023-03-10T18:58:00.173Z,98391.66
2023-03-10T19:00:28.194Z,98390.59
2023-03-10T19:02:55.878Z,98404.00
2023-03-10T19:05:23.586Z,98376.81
2023-03-10T19:07:51.204Z,98418.47
2023-03-10T19:10:20.042Z,98405.84
2023-03-10T19:12:47.694Z,98422.00
2023-03-10T19:15:18.566Z,98424.44
2023-03-10T19:17:46.190Z,98421.03
2023-03-10T19:20:15.621Z,98450.06
2023-03-10T19:22:44.177Z,98437.28
2023-03-10T19:25:12.982Z,98439.00
2023-03-10T19:27:40.688Z,98399.88
2023-03-10T19:30:11.432Z,98424.56
2023-03-10T19:32:40.799Z,98442.63
2023-03-10T19:35:09.627Z,98453.66
2023-03-10T19:37:38.438Z,98450.66
2023-03-10T19:40:08.826Z,98457.00
2023-03-10T19:42:38.733Z,98505.75
2023-03-10T19:45:08.094Z,98470.31
2023-03-10T19:47:35.636Z,98498.22
2023-03-10T19:50:05.782Z,98529.53
2023-03-10T19:52:33.607Z,98539.75
2023-03-10T19:55:01.377Z,98534.88
2023-03-10T19:57:28.999Z,98554.44
2023-03-10T19:59:56.632Z,98573.34
2023-03-10T20:02:24.737Z,98570.88
2023-03-10T20:04:52.497Z,98579.25
2023-03-10T20:07:21.424Z,98605.69
2023-03-10T20:09:49.598Z,98609.19
2023-03-10T20:12:17.294Z,98618.56
2023-03-10T20:14:45.023Z,98603.41
2023-03-10T20:17:12.662Z,98623.06
2023-03-10T20:19:41.169Z,98618.97
2023-03-10T20:22:08.790Z,98618.00
2023-03-10T20:24:37.860Z,98632.59
2023-03-10T20:27:05.741Z,98633.44
2023-03-10T20:29:33.569Z,98634.22
2023-03-10T20:32:01.319Z,98631.50
2023-03-10T20:34:28.923Z,98647.72
2023-03-10T20:36:56.582Z,98664.78
2023-03-10T20:39:24.852Z,98656.16
2023-03-10T20:41:53.822Z,98650.28
2023-03-10T20:44:21.379Z,98685.03
2023-03-10T20:46:49.015Z,98757.25
2023-03-10T20:49:16.685Z,98727.56
2023-03-10T20:51:44.298Z,98760.50
2023-03-10T20:54:11.963Z,98762.25
2023-03-10T20:56:39.574Z,98773.94
2023-03-10T20:59:08.524Z,98768.16
2023-03-10T21:01:39.637Z,98790.13
2023-03-10T21:04:07.457Z,98794.34
2023-03-10T21:06:35.818Z,98788.28
2023-03-10T21:09:09.316Z,98808.66
2023-03-10T21:11:36.905Z,98818.72
2023-03-10T21:14:04.650Z,98816.09
2023-03-10T21:16:37.985Z,98837.19
2023-03-10T21:19:05.655Z,98835.63
2023-03-10T21:21:34.478Z,98832.38
2023-03-10T21:24:02.364Z,98804.88
2023-03-10T21:26:30.045Z,98860.88
2023-03-10T21:28:57.774Z,98854.84
2023-03-10T21:31:25.297Z,98865.78
2023-03-10T21:33:54.362Z,98886.47
2023-03-10T21:36:23.839Z,98881.03
2023-03-10T21:38:52.597Z,98871.00
2023-03-10T21:41:22.840Z,98865.88
2023-03-10T21:43:50.466Z,98868.41
2023-03-10T21:46:18.026Z,98888.81
2023-03-10T21:48:45.828Z,98883.03
2023-03-10T21:51:17.266Z,98869.31
2023-03-10T21:53:45.451Z,98874.53
2023-03-10T21:56:13.061Z,98878.59
2023-03-10T21:58:40.599Z,98867.53
2023-03-10T22:01:08.827Z,98887.53
2023-03-10T22:03:36.444Z,98878.97
2023-03-10T22:06:04.986Z,98881.00
2023-03-10T22:08:34.342Z,98877.44
2023-03-10T22:11:02.567Z,98874.06
2023-03-10T22:13:30.089Z,98876.72
2023-03-10T22:16:00.399Z,98879.91
2023-03-10T22:18:28.088Z,98879.16
2023-03-10T22:20:55.750Z,98888.38
2023-03-10T22:23:23.818Z,98889.25
2023-03-10T22:25:52.926Z,98899.56
2023-03-10T22:28:20.478Z,98907.16
2023-03-10T22:30:48.031Z,98913.88
2023-03-10T22:33:15.569Z,98932.34
2023-03-10T22:35:45.075Z,98938.13
2023-03-10T22:38:13.557Z,98920.13
2023-03-10T22:40:41.196Z,98934.63
2023-03-10T22:43:10.185Z,98949.63
2023-03-10T22:49:44.062Z,98964.94
2023-03-10T22:52:11.639Z,98956.16
2023-03-10T22:54:39.212Z,98955.28
2023-03-10T22:57:07.205Z,98964.50
2023-03-10T22:59:36.078Z,98969.50
2023-03-10T23:02:03.944Z,98972.44
2023-03-10T23:04:31.522Z,98963.06
2023-03-10T23:06:59.127Z,98958.69
2023-03-10T23:09:26.728Z,98958.50
2023-03-10T23:11:54.292Z,98985.56
2023-03-10T23:14:21.911Z,98979.66
2023-03-10T23:16:50.821Z,98962.50
2023-03-10T23:19:18.536Z,98976.78
2023-03-10T23:21:46.225Z,98987.94
2023-03-10T23:24:13.823Z,98970.66
2023-03-10T23:26:41.529Z,98975.66
2023-03-10T23:29:09.119Z,98962.16
2023-03-10T23:31:36.945Z,98966.06
2023-03-10T23:34:05.980Z,98975.16
2023-03-10T23:36:33.742Z,98980.41
2023-03-10T23:39:01.312Z,98970.72
2023-03-10T23:41:28.835Z,99004.66
2023-03-10T23:43:56.388Z,98999.34
2023-03-10T23:46:25.070Z,99004.22
2023-03-10T23:48:52.948Z,98994.06
2023-03-10T23:51:21.871Z,99006.63
2023-03-10T23:53:49.514Z,99033.63
2023-03-10T23:56:17.176Z,98998.72
2023-03-10T23:58:44.756Z,99010.50
